createdAt,value
2023-01-22T00:00:31.987Z,1.15
2023-01-22T00:01:31.989Z,1.17
2023-01-22T00:02:32.142Z,1.16
2023-01-22T00:03:32.060Z,1.17
2023-01-22T00:04:31.994Z,1.14
2023-01-22T00:05:31.995Z,1.17
2023-01-22T00:06:32.009Z,1.17
2023-01-22T00:07:32.015Z,1.19
2023-01-22T00:08:32.010Z,1.17
2023-01-22T00:09:31.997Z,1.19
2023-01-22T00:10:32.052Z,1.15
2023-01-22T00:11:32.032Z,1.18
2023-01-22T00:12:32.030Z,1.19
2023-01-22T00:13:32.033Z,1.19
2023-01-22T00:14:32.077Z,1.19
2023-01-22T00:15:32.040Z,1.20
2023-01-22T00:16:32.042Z,1.19
2023-01-22T00:17:32.038Z,1.19
2023-01-22T00:18:32.029Z,1.19
2023-01-22T00:19:32.032Z,1.18
2023-01-22T00:20:32.034Z,1.20
2023-01-22T00:21:32.017Z,1.21
2023-01-22T00:22:32.036Z,1.22
2023-01-22T00:23:32.048Z,1.19
2023-01-22T00:24:32.052Z,1.18
2023-01-22T00:25:32.022Z,1.17
2023-01-22T00:26:32.025Z,1.18
2023-01-22T00:27:32.036Z,1.19
2023-01-22T00:28:32.052Z,1.19
2023-01-22T00:29:32.035Z,1.19
2023-01-22T00:30:32.029Z,1.21
2023-01-22T00:31:32.119Z,1.20
2023-01-22T00:32:32.037Z,1.22
2023-01-22T00:33:32.066Z,1.19
2023-01-22T00:34:32.060Z,1.21
2023-01-22T00:35:32.055Z,1.20
2023-01-22T00:36:32.072Z,1.20
2023-01-22T00:37:32.064Z,1.18
2023-01-22T00:38:32.065Z,1.21
2023-01-22T00:39:32.064Z,1.22
2023-01-22T00:40:32.082Z,1.22
2023-01-22T00:41:32.111Z,1.21
2023-01-22T00:42:32.100Z,1.22
2023-01-22T00:43:32.114Z,1.20
2023-01-22T00:44:32.092Z,1.20
2023-01-22T00:45:32.124Z,1.22
2023-01-22T00:46:32.175Z,1.20
2023-01-22T00:47:32.113Z,1.22
2023-01-22T00:48:32.114Z,1.21
2023-01-22T00:49:32.144Z,1.22
2023-01-22T00:50:32.119Z,1.21
2023-01-22T00:51:32.133Z,1.24
2023-01-22T00:52:32.126Z,1.20
2023-01-22T00:53:32.135Z,1.21
2023-01-22T00:54:32.137Z,1.21
2023-01-22T00:55:32.166Z,1.21
2023-01-22T00:56:32.157Z,1.22
2023-01-22T00:57:32.141Z,1.23
2023-01-22T00:58:32.167Z,1.22
2023-01-22T00:59:32.145Z,1.23
2023-01-22T01:00:32.169Z,1.21
2023-01-22T01:01:32.170Z,1.21
2023-01-22T01:02:32.165Z,1.19
2023-01-22T01:03:32.182Z,1.22
2023-01-22T01:04:32.174Z,1.22
2023-01-22T01:05:32.181Z,1.23
2023-01-22T01:06:32.183Z,1.24
2023-01-22T01:07:32.195Z,1.24
2023-01-22T01:08:32.213Z,1.24
2023-01-22T01:09:32.186Z,1.25
2023-01-22T01:10:32.187Z,1.22
2023-01-22T01:11:32.194Z,1.23
2023-01-22T01:12:32.291Z,1.23
2023-01-22T01:13:32.231Z,1.23
2023-01-22T01:14:32.220Z,1.25
2023-01-22T01:15:32.231Z,1.23
2023-01-22T01:16:32.267Z,1.24
2023-01-22T01:17:32.222Z,1.23
2023-01-22T01:18:32.225Z,1.25
2023-01-22T01:19:32.230Z,1.25
2023-01-22T01:20:32.237Z,1.21
2023-01-22T01:21:32.249Z,1.23
2023-01-22T01:22:32.230Z,1.22
2023-01-22T01:23:32.242Z,1.24
2023-01-22T01:24:32.248Z,1.23
2023-01-22T01:25:32.238Z,1.25
2023-01-22T01:26:32.225Z,1.23
2023-01-22T01:27:32.220Z,1.23
2023-01-22T01:28:32.298Z,1.25
2023-01-22T01:29:32.238Z,1.24
2023-01-22T01:30:32.276Z,1.24
2023-01-22T01:31:32.261Z,1.23
2023-01-22T01:32:32.212Z,1.24
2023-01-22T01:33:32.224Z,1.23
2023-01-22T01:34:32.221Z,1.24
2023-01-22T01:35:32.207Z,1.25
2023-01-22T01:36:47.786Z,1.23
2023-01-22T01:37:33.213Z,1.23
2023-01-22T01:38:32.200Z,1.23
2023-01-22T01:39:32.199Z,1.25
2023-01-22T01:40:32.197Z,1.24
2023-01-22T01:41:32.200Z,1.26
2023-01-22T01:42:32.191Z,1.27
2023-01-22T01:43:32.190Z,1.26
2023-01-22T01:44:32.289Z,1.25
2023-01-22T01:45:32.227Z,1.26
2023-01-22T01:46:32.227Z,1.24
2023-01-22T01:47:32.197Z,1.25
2023-01-22T01:48:32.191Z,1.26
2023-01-22T01:49:32.220Z,1.26
2023-01-22T01:50:32.194Z,1.27
2023-01-22T01:51:32.204Z,1.26
2023-01-22T01:52:32.197Z,1.25
2023-01-22T01:53:32.231Z,1.27
2023-01-22T01:54:32.200Z,1.24
2023-01-22T01:55:32.218Z,1.25
2023-01-22T01:56:32.203Z,1.24
2023-01-22T01:57:32.199Z,1.25
2023-01-22T01:58:32.190Z,1.25
2023-01-22T01:59:32.195Z,1.25
2023-01-22T02:00:32.308Z,1.27
2023-01-22T02:01:32.205Z,1.26
2023-01-22T02:02:32.199Z,1.27
2023-01-22T02:03:32.204Z,1.26
2023-01-22T02:04:32.225Z,1.27
2023-01-22T02:05:32.200Z,1.25
2023-01-22T02:06:32.221Z,1.26
2023-01-22T02:07:32.207Z,1.27
2023-01-22T02:08:32.212Z,1.25
2023-01-22T02:09:32.209Z,1.27
2023-01-22T02:10:32.221Z,1.27
2023-01-22T02:11:32.231Z,1.26
2023-01-22T02:12:32.228Z,1.27
2023-01-22T02:13:32.239Z,1.25
2023-01-22T02:14:32.244Z,1.28
2023-01-22T02:15:32.239Z,1.27
2023-01-22T02:16:32.380Z,1.27
2023-01-22T02:17:32.263Z,1.27
2023-01-22T02:18:32.294Z,1.28
2023-01-22T02:19:32.277Z,1.26
2023-01-22T02:20:32.259Z,1.26
2023-01-22T02:21:32.282Z,1.25
2023-01-22T02:22:32.260Z,1.25
2023-01-22T02:23:33.238Z,1.28
2023-01-22T02:24:32.281Z,1.26
2023-01-22T02:25:32.290Z,1.25
2023-01-22T02:26:32.282Z,1.26
2023-01-22T02:27:32.294Z,1.28
2023-01-22T02:28:32.304Z,1.28
2023-01-22T02:29:32.282Z,1.26
2023-01-22T02:30:32.384Z,1.29
2023-01-22T02:31:32.362Z,1.29
2023-01-22T02:32:32.391Z,1.27
2023-01-22T02:33:32.288Z,1.26
2023-01-22T02:34:32.305Z,1.27
2023-01-22T02:35:32.333Z,1.26
2023-01-22T02:36:32.312Z,1.27
2023-01-22T02:37:32.293Z,1.26
2023-01-22T02:38:32.294Z,1.26
2023-01-22T02:39:32.296Z,1.28
2023-01-22T02:40:32.310Z,1.25
2023-01-22T02:41:32.286Z,1.28
2023-01-22T02:42:32.280Z,1.27
2023-01-22T02:43:32.290Z,1.27
2023-01-22T02:44:32.297Z,1.27
2023-01-22T02:45:32.369Z,1.28
2023-01-22T02:46:32.299Z,1.27
2023-01-22T02:47:32.295Z,1.29
2023-01-22T02:48:32.388Z,1.25
2023-01-22T02:49:32.303Z,1.27
2023-01-22T02:50:32.314Z,1.27
2023-01-22T02:51:32.323Z,1.28
2023-01-22T02:52:32.320Z,1.27
2023-01-22T02:53:32.323Z,1.28
2023-01-22T02:54:32.331Z,1.26
2023-01-22T02:55:32.321Z,1.28
2023-01-22T02:56:32.334Z,1.27
2023-01-22T02:57:32.324Z,1.27
2023-01-22T02:58:32.350Z,1.26
2023-01-22T02:59:32.331Z,1.25
2023-01-22T03:00:32.331Z,1.28
2023-01-22T03:01:32.338Z,1.27
2023-01-22T03:02:32.382Z,1.28
2023-01-22T03:03:32.340Z,1.27
2023-01-22T03:04:32.427Z,1.28
2023-01-22T03:05:32.337Z,1.27
2023-01-22T03:06:32.340Z,1.28
2023-01-22T03:07:32.339Z,1.28
2023-01-22T03:08:32.347Z,1.28
2023-01-22T03:09:32.356Z,1.27
2023-01-22T03:10:32.357Z,1.27
2023-01-22T03:11:32.348Z,1.29
2023-01-22T03:12:32.350Z,1.29
2023-01-22T03:13:32.346Z,1.29
2023-01-22T03:14:32.344Z,1.29
2023-01-22T03:15:32.352Z,1.29
2023-01-22T03:16:32.402Z,1.29
2023-01-22T03:17:32.369Z,1.27
2023-01-22T03:18:32.370Z,1.26
2023-01-22T03:19:32.370Z,1.26
2023-01-22T03:20:32.479Z,1.29
2023-01-22T03:21:32.399Z,1.25
2023-01-22T03:22:32.407Z,1.27
2023-01-22T03:23:32.402Z,1.25
2023-01-22T03:24:32.404Z,1.28
2023-01-22T03:25:32.409Z,1.27
2023-01-22T03:26:32.440Z,1.25
2023-01-22T03:27:32.463Z,1.25
2023-01-22T03:28:32.443Z,1.23
2023-01-22T03:29:32.443Z,1.23
2023-01-22T03:30:32.444Z,1.24
2023-01-22T03:31:33.310Z,1.21
2023-01-22T03:32:32.451Z,1.26
2023-01-22T03:33:32.456Z,1.21
2023-01-22T03:34:32.477Z,1.21
2023-01-22T03:35:32.480Z,1.23
2023-01-22T03:36:32.580Z,1.21
2023-01-22T03:37:32.521Z,1.21
2023-01-22T03:38:32.480Z,1.20
2023-01-22T03:39:32.520Z,1.22
2023-01-22T03:40:32.525Z,1.17
2023-01-22T03:41:32.497Z,1.20
2023-01-22T03:42:32.505Z,1.19
2023-01-22T03:43:32.507Z,1.18
2023-01-22T03:44:32.505Z,1.18
2023-01-22T03:45:32.507Z,1.17
2023-01-22T03:46:32.767Z,1.17
2023-01-22T03:47:32.534Z,1.15
2023-01-22T03:48:32.524Z,1.18
2023-01-22T03:49:32.535Z,1.16
2023-01-22T03:50:32.547Z,1.18
2023-01-22T03:51:32.546Z,1.14
2023-01-22T06:48:33.923Z,1.10
2023-01-22T06:50:33.015Z,1.14
2023-01-22T06:51:33.030Z,1.11
2023-01-22T06:52:33.009Z,1.11
2023-01-22T06:53:33.013Z,1.12
2023-01-22T06:54:33.048Z,1.11
2023-01-22T06:55:33.065Z,1.11
2023-01-22T06:56:33.017Z,1.11
2023-01-22T06:57:33.043Z,1.11
2023-01-22T06:58:33.040Z,1.11
2023-01-22T06:59:33.026Z,1.11
2023-01-22T07:00:33.029Z,1.11
2023-01-22T07:01:33.077Z,1.10
2023-01-22T07:02:33.025Z,1.14
2023-01-22T07:03:33.069Z,1.10
2023-01-22T07:04:33.137Z,1.11
2023-01-22T07:05:33.055Z,1.09
2023-01-22T07:06:33.057Z,1.11
2023-01-22T07:07:33.058Z,1.09
2023-01-22T07:08:33.058Z,1.09
2023-01-22T07:09:33.068Z,1.08
2023-01-22T07:10:33.091Z,1.09
2023-01-22T07:11:33.107Z,1.09
2023-01-22T07:12:33.102Z,1.08
2023-01-22T07:13:33.096Z,1.09
2023-01-22T07:14:37.541Z,1.08
2023-01-22T07:15:33.095Z,1.08
2023-01-22T07:16:33.169Z,1.08
2023-01-22T07:17:33.098Z,1.08
2023-01-22T07:18:33.117Z,1.09
2023-01-22T07:19:33.118Z,1.07
2023-01-22T07:20:33.197Z,1.07
2023-01-22T07:21:33.107Z,1.08
2023-01-22T07:22:33.117Z,1.07
2023-01-22T07:23:33.135Z,1.07
2023-01-22T07:24:33.130Z,1.06
2023-01-22T07:25:33.133Z,1.06
2023-01-22T07:26:33.123Z,1.04
2023-01-22T07:27:33.131Z,1.04
2023-01-22T07:28:33.141Z,1.04
2023-01-22T07:29:33.158Z,1.05
2023-01-22T07:30:33.182Z,1.06
2023-01-22T07:31:33.150Z,1.07
2023-01-22T07:32:33.153Z,1.06
2023-01-22T07:33:33.166Z,1.06
2023-01-22T07:34:33.175Z,1.06
2023-01-22T07:35:33.179Z,1.05
2023-01-22T07:36:38.926Z,1.05
2023-01-22T07:37:34.272Z,1.05
2023-01-22T07:38:33.180Z,1.05
2023-01-22T07:39:33.207Z,1.05
2023-01-22T07:40:33.205Z,1.06
2023-01-22T07:41:33.202Z,1.06
2023-01-22T07:42:33.205Z,1.06
2023-01-22T07:43:33.210Z,1.05
2023-01-22T07:44:33.232Z,1.06
2023-01-22T07:45:33.217Z,1.04
2023-01-22T07:46:33.241Z,1.05
2023-01-22T07:47:33.230Z,1.05
2023-01-22T07:48:33.234Z,1.06
2023-01-22T07:49:33.261Z,1.04
2023-01-22T07:50:33.266Z,1.03
2023-01-22T07:51:33.265Z,1.04
2023-01-22T07:52:33.273Z,1.02
2023-01-22T07:53:33.355Z,1.03
2023-01-22T07:54:33.315Z,1.04
2023-01-22T07:55:33.272Z,1.04
2023-01-22T07:56:33.279Z,1.04
2023-01-22T07:57:33.281Z,1.04
2023-01-22T07:58:33.294Z,1.02
2023-01-22T07:59:33.302Z,1.01
2023-01-22T08:00:33.332Z,1.03
2023-01-22T08:01:33.309Z,1.02
2023-01-22T08:02:33.313Z,1.01
2023-01-22T08:03:33.322Z,1.03
2023-01-22T08:04:33.322Z,1.02
2023-01-22T08:05:33.321Z,1.02
2023-01-22T08:06:33.320Z,1.02
2023-01-22T08:07:33.318Z,1.00
2023-01-22T08:08:33.317Z,1.01
2023-01-22T08:09:33.408Z,1.01
2023-01-22T08:10:33.315Z,1.01
2023-01-22T08:11:33.317Z,1.00
2023-01-22T08:12:33.324Z,0.99
2023-01-22T08:13:33.317Z,1.00
2023-01-22T08:14:33.314Z,1.00
2023-01-22T08:15:33.327Z,1.00
2023-01-22T08:16:33.383Z,0.99
2023-01-22T08:17:33.330Z,0.98
2023-01-22T08:18:33.316Z,0.99
2023-01-22T08:19:33.323Z,0.97
2023-01-22T08:20:33.335Z,1.01
2023-01-22T08:21:33.330Z,0.99
2023-01-22T08:22:33.361Z,1.00
2023-01-22T08:23:33.350Z,0.99
2023-01-22T08:24:33.339Z,0.99
2023-01-22T08:25:33.429Z,0.99
2023-01-22T08:26:33.333Z,0.97
2023-01-22T08:27:33.361Z,0.97
2023-01-22T08:28:33.359Z,0.97
2023-01-22T08:29:33.354Z,0.97
2023-01-22T08:30:38.460Z,0.97
2023-01-22T08:31:34.524Z,0.97
2023-01-22T08:32:33.378Z,0.98
2023-01-22T08:33:33.354Z,0.98
2023-01-22T08:34:33.351Z,0.97
2023-01-22T08:35:33.337Z,0.99
2023-01-22T08:36:33.333Z,0.99
2023-01-22T08:37:33.339Z,0.96
2023-01-22T08:38:33.338Z,0.97
2023-01-22T08:39:33.351Z,0.98
2023-01-22T08:40:33.351Z,0.99
2023-01-22T08:41:33.439Z,0.98
2023-01-22T08:42:33.336Z,0.98
2023-01-22T08:43:33.357Z,0.97
2023-01-22T08:44:33.332Z,0.96
2023-01-22T08:45:33.383Z,0.98
2023-01-22T08:46:33.362Z,0.99
2023-01-22T08:47:33.333Z,0.98
2023-01-22T08:48:33.337Z,0.98
2023-01-22T08:49:33.350Z,1.00
2023-01-22T08:50:33.331Z,0.99
2023-01-22T08:51:33.335Z,0.98
2023-01-22T08:52:33.325Z,1.00
2023-01-22T08:53:33.332Z,0.99
2023-01-22T08:54:33.337Z,0.99
2023-01-22T08:55:33.314Z,0.97
2023-01-22T08:56:33.349Z,0.96
2023-01-22T08:57:33.397Z,0.97
2023-01-22T08:58:33.345Z,1.00
2023-01-22T08:59:33.308Z,0.98
2023-01-22T09:00:33.323Z,0.99
2023-01-22T09:01:33.312Z,1.00
2023-01-22T09:02:33.301Z,1.00
2023-01-22T09:03:33.293Z,0.98
2023-01-22T09:04:33.282Z,0.99
2023-01-22T09:05:33.286Z,0.99
2023-01-22T09:06:33.287Z,0.99
2023-01-22T09:07:33.286Z,1.01
2023-01-22T09:08:33.293Z,0.99
2023-01-22T09:09:33.261Z,1.01
2023-01-22T09:10:33.270Z,0.99
2023-01-22T09:11:33.284Z,1.01
2023-01-22T09:12:33.267Z,1.01
2023-01-22T09:13:33.328Z,1.00
2023-01-22T09:14:33.235Z,1.03
2023-01-22T09:15:33.236Z,1.02
2023-01-22T09:16:33.255Z,1.02
2023-01-22T09:17:33.222Z,1.03
2023-01-22T09:18:33.200Z,1.02
2023-01-22T09:19:33.176Z,1.02
2023-01-22T09:20:33.165Z,1.02
2023-01-22T09:21:33.180Z,1.02
2023-01-22T09:22:33.164Z,1.02
2023-01-22T09:23:33.143Z,1.02
2023-01-22T09:24:33.139Z,1.01
2023-01-22T09:25:33.130Z,1.03
2023-01-22T09:26:33.115Z,1.02
2023-01-22T09:27:33.111Z,1.04
2023-01-22T09:28:35.147Z,1.04
2023-01-22T09:29:33.174Z,1.05
2023-01-22T09:30:33.085Z,1.04
2023-01-22T09:31:33.087Z,1.05
2023-01-22T09:32:33.043Z,1.04
2023-01-22T09:33:33.050Z,1.04
2023-01-22T09:34:33.035Z,1.04
2023-01-22T09:35:33.020Z,1.04
2023-01-22T09:36:33.024Z,1.05
2023-01-22T09:37:32.995Z,1.05
2023-01-22T09:38:33.886Z,1.04
2023-01-22T09:39:33.881Z,1.07
2023-01-22T09:40:33.006Z,1.05
2023-01-22T09:41:32.979Z,1.06
2023-01-22T09:42:32.963Z,1.06
2023-01-22T09:43:32.967Z,1.06
2023-01-22T09:44:32.939Z,1.06
2023-01-22T09:45:33.067Z,1.06
2023-01-22T09:46:32.950Z,1.07
2023-01-22T09:47:32.921Z,1.08
2023-01-22T09:48:32.914Z,1.07
2023-01-22T09:49:32.910Z,1.08
2023-01-22T09:50:32.881Z,1.06
2023-01-22T09:51:32.915Z,1.07
2023-01-22T09:52:32.856Z,1.08
2023-01-22T09:53:32.843Z,1.08
2023-01-22T09:54:32.833Z,1.08
2023-01-22T09:55:32.820Z,1.08
2023-01-22T09:56:32.884Z,1.09
2023-01-22T09:57:32.782Z,1.06
2023-01-22T09:58:32.784Z,1.09
2023-01-22T09:59:32.761Z,1.08
2023-01-22T10:00:32.788Z,1.08
2023-01-22T10:01:32.912Z,1.08
2023-01-22T10:02:32.835Z,1.08
2023-01-22T10:03:32.751Z,1.06
2023-01-22T10:04:32.697Z,1.06
2023-01-22T10:05:32.700Z,1.06
2023-01-22T10:06:32.665Z,1.07
2023-01-22T10:07:32.670Z,1.07
2023-01-22T10:08:32.669Z,1.08
2023-01-22T10:09:32.641Z,1.06
2023-01-22T10:10:32.632Z,1.07
2023-01-22T10:11:32.617Z,1.07
2023-01-22T10:12:32.614Z,1.08
2023-01-22T10:13:32.610Z,1.06
2023-01-22T10:14:32.577Z,1.07
2023-01-22T10:15:32.577Z,1.07
2023-01-22T10:16:32.566Z,1.07
2023-01-22T10:17:32.636Z,1.08
2023-01-22T10:18:32.543Z,1.07
2023-01-22T10:19:32.522Z,1.10
2023-01-22T10:55:32.095Z,1.08
2023-01-22T10:56:32.101Z,1.07
2023-01-22T10:57:32.072Z,1.07
2023-01-22T10:58:32.083Z,1.06
2023-01-22T10:59:32.062Z,1.06
2023-01-22T11:00:46.429Z,1.07
2023-01-22T11:01:33.070Z,1.07
2023-01-22T11:02:32.093Z,1.07
2023-01-22T11:03:32.003Z,1.07
2023-01-22T11:04:31.986Z,1.08
2023-01-22T11:05:31.998Z,1.09
2023-01-22T11:06:32.050Z,1.07
2023-01-22T11:07:32.891Z,1.07
2023-01-22T11:08:31.945Z,1.07
2023-01-22T11:09:31.954Z,1.08
2023-01-22T11:10:31.921Z,1.06
2023-01-22T11:11:31.920Z,1.06
2023-01-22T11:13:31.903Z,1.05
2023-01-22T11:14:31.879Z,1.07
2023-01-22T11:15:31.866Z,1.06
2023-01-22T11:16:31.834Z,1.07
2023-01-22T11:17:31.820Z,1.06
2023-01-22T11:18:31.823Z,1.06
2023-01-22T11:19:37.285Z,1.06
2023-01-22T11:20:32.789Z,1.06
2023-01-22T11:21:31.781Z,1.06
2023-01-22T11:22:31.849Z,1.07
2023-01-22T11:23:31.761Z,1.06
2023-01-22T11:24:31.744Z,1.06
2023-01-22T11:25:31.737Z,1.07
2023-01-22T11:26:31.718Z,1.06
2023-01-22T11:27:31.721Z,1.06
2023-01-22T11:28:31.686Z,1.05
2023-01-22T11:29:31.668Z,1.06
2023-01-22T11:30:31.700Z,1.07
2023-01-22T11:31:31.736Z,1.06
2023-01-22T11:32:31.637Z,1.06
2023-01-22T11:33:31.642Z,1.05
2023-01-22T11:34:31.615Z,1.05
2023-01-22T11:35:31.600Z,1.04
2023-01-22T11:36:31.577Z,1.05
2023-01-22T11:37:31.589Z,1.06
2023-01-22T11:38:31.658Z,1.04
2023-01-22T11:39:31.555Z,1.07
2023-01-22T11:40:31.536Z,1.04
2023-01-22T11:41:31.526Z,1.06
2023-01-22T11:42:31.536Z,1.05
2023-01-22T11:43:31.507Z,1.07
2023-01-22T11:44:31.529Z,1.06
2023-01-22T11:45:31.480Z,1.05
2023-01-22T11:46:31.526Z,1.06
2023-01-22T11:47:31.472Z,1.05
2023-01-22T11:48:31.472Z,1.05
2023-01-22T11:49:31.411Z,1.06
2023-01-22T11:50:31.411Z,1.07
2023-01-22T11:51:31.386Z,1.05
2023-01-22T11:52:31.361Z,1.06
2023-01-22T11:53:31.363Z,1.06
2023-01-22T11:54:31.431Z,1.05
2023-01-22T11:55:31.316Z,1.05
2023-01-22T11:56:31.318Z,1.06
2023-01-22T11:57:31.291Z,1.06
2023-01-22T11:58:31.310Z,1.04
2023-01-22T11:59:32.372Z,1.04
2023-01-22T12:00:31.255Z,1.06
2023-01-22T12:01:31.246Z,1.06
2023-01-22T12:02:31.239Z,1.06
2023-01-22T12:03:31.219Z,1.06
2023-01-22T12:04:31.187Z,1.06
2023-01-22T12:05:31.162Z,1.06
2023-01-22T12:28:30.754Z,1.06
2023-01-22T12:30:30.685Z,1.06
2023-01-22T13:13:29.971Z,0.94
2023-01-22T13:14:30.058Z,0.93
2023-01-22T13:15:29.977Z,0.93
2023-01-22T13:16:29.988Z,0.93
2023-01-22T13:17:29.918Z,0.93
2023-01-22T13:18:29.902Z,0.92
2023-01-22T13:19:29.879Z,0.93
2023-01-22T13:20:29.871Z,0.93
2023-01-22T13:21:29.840Z,0.93
2023-01-22T13:22:29.850Z,0.94
2023-01-22T13:23:29.824Z,0.93
2023-01-22T13:24:29.817Z,0.94
2023-01-22T13:25:29.789Z,0.94
2023-01-22T13:26:29.776Z,0.94
2023-01-22T13:27:29.775Z,0.93
2023-01-22T13:28:29.764Z,0.95
2023-01-22T13:29:29.743Z,0.94
2023-01-22T13:30:29.838Z,0.95
2023-01-22T13:31:29.720Z,0.96
2023-01-22T13:32:29.673Z,0.95
2023-01-22T13:33:29.685Z,0.94
2023-01-22T13:34:29.665Z,0.95
2023-01-22T13:35:29.638Z,0.94
2023-01-22T13:36:29.665Z,0.94
2023-01-22T13:37:29.611Z,0.95
2023-01-22T13:38:29.593Z,0.95
2023-01-22T13:39:29.604Z,0.94
2023-01-22T13:40:36.966Z,0.95
2023-01-22T13:41:30.549Z,0.95
2023-01-22T13:42:29.533Z,0.95
2023-01-22T13:43:29.536Z,0.95
2023-01-22T13:44:29.509Z,0.96
2023-01-22T13:45:29.490Z,0.96
2023-01-22T13:46:29.593Z,0.95
2023-01-22T13:47:29.480Z,0.96
2023-01-22T13:48:29.469Z,0.96
2023-01-22T13:49:29.429Z,0.96
2023-01-22T13:50:29.452Z,0.95
2023-01-22T13:51:29.394Z,0.96
2023-01-22T13:52:29.390Z,0.97
2023-01-22T13:53:29.363Z,0.95
2023-01-22T13:54:29.350Z,0.96
2023-01-22T13:55:29.339Z,0.96
2023-01-22T13:56:29.342Z,0.95
2023-01-22T13:57:29.283Z,0.96
2023-01-22T13:58:38.850Z,0.96
2023-01-22T13:59:30.277Z,0.96
2023-01-22T14:00:29.337Z,0.96
2023-01-22T14:01:29.257Z,0.97
2023-01-22T14:02:29.317Z,0.97
2023-01-22T14:03:29.190Z,0.97
2023-01-22T14:04:29.182Z,0.97
2023-01-22T14:05:29.170Z,0.97
2023-01-22T14:06:29.178Z,0.96
2023-01-22T14:07:29.145Z,0.95
2023-01-22T14:08:29.138Z,0.96
2023-01-22T14:09:29.111Z,0.96
2023-01-22T14:10:29.109Z,0.96
2023-01-22T14:11:29.108Z,0.96
2023-01-22T14:12:29.085Z,0.97
2023-01-22T14:13:29.086Z,0.96
2023-01-22T14:14:29.054Z,0.96
2023-01-22T14:15:29.040Z,0.96
2023-01-22T14:16:29.088Z,0.96
2023-01-22T14:17:29.075Z,0.97
2023-01-22T14:18:29.124Z,0.97
2023-01-22T14:19:29.016Z,0.97
2023-01-22T14:20:29.015Z,0.97
2023-01-22T14:21:28.992Z,0.97
2023-01-22T14:22:28.985Z,0.95
2023-01-22T14:23:28.986Z,0.96
2023-01-22T14:24:28.959Z,0.96
2023-01-22T14:25:31.557Z,0.96
2023-01-22T14:26:28.944Z,0.98
2023-01-22T14:27:28.949Z,0.96
2023-01-22T14:28:28.922Z,0.96
2023-01-22T14:29:28.910Z,0.97
2023-01-22T14:34:28.924Z,0.97
2023-01-22T16:11:27.899Z,0.88
2023-01-22T16:12:27.879Z,0.88
2023-01-22T16:13:27.871Z,0.88
2023-01-22T16:14:27.887Z,0.88
2023-01-22T16:15:27.857Z,0.89
2023-01-22T16:16:27.873Z,0.89
2023-01-22T16:17:27.858Z,0.90
2023-01-22T16:18:27.865Z,0.90
2023-01-22T16:19:27.851Z,0.89
2023-01-22T16:20:27.817Z,0.89
2023-01-22T16:21:27.816Z,0.89
2023-01-22T16:22:27.823Z,0.90
2023-01-22T16:23:27.829Z,0.90
2023-01-22T16:24:27.809Z,0.90
2023-01-22T16:25:27.789Z,0.91
2023-01-22T16:26:27.869Z,0.90
2023-01-22T16:27:27.760Z,0.90
2023-01-22T16:28:27.764Z,0.90
2023-01-22T16:29:27.740Z,0.90
2023-01-22T16:30:27.778Z,0.90
2023-01-22T16:31:27.883Z,0.90
2023-01-22T16:32:27.716Z,0.89
2023-01-22T16:33:27.723Z,0.91
2023-01-22T16:34:27.694Z,0.91
2023-01-22T16:35:27.674Z,0.90
2023-01-22T16:36:27.671Z,0.90
2023-01-22T16:37:27.672Z,0.90
2023-01-22T16:38:27.656Z,0.93
2023-01-22T16:39:27.637Z,0.90
2023-01-22T16:40:27.613Z,0.91
2023-01-22T16:41:27.599Z,0.89
2023-01-22T16:42:27.674Z,0.90
2023-01-22T16:43:27.587Z,0.91
2023-01-22T16:44:27.593Z,0.91
2023-01-22T16:45:27.560Z,0.90
2023-01-22T16:46:27.599Z,0.91
2023-01-22T16:47:27.541Z,0.89
2023-01-22T16:48:27.546Z,0.90
2023-01-22T16:49:27.524Z,0.89
2023-01-22T16:50:27.506Z,0.89
2023-01-22T16:51:27.548Z,0.90
2023-01-22T16:52:27.501Z,0.89
2023-01-22T16:53:27.497Z,0.89
2023-01-22T16:54:27.486Z,0.88
2023-01-22T16:55:27.471Z,0.88
2023-01-22T16:56:27.437Z,0.89
2023-01-22T16:57:27.460Z,0.88
2023-01-22T16:58:27.505Z,0.88
2023-01-22T16:59:27.406Z,0.89
2023-01-22T17:00:27.407Z,0.88
2023-01-22T17:01:27.465Z,0.86
2023-01-22T17:02:27.403Z,0.86
2023-01-22T17:03:27.381Z,0.87
2023-01-22T17:04:27.351Z,0.88
2023-01-22T17:05:27.349Z,0.87
2023-01-22T17:06:27.365Z,0.87
2023-01-22T17:07:33.675Z,0.87
2023-01-22T17:09:27.319Z,0.87
2023-01-22T17:10:27.304Z,0.87
2023-01-22T17:11:27.294Z,0.86
2023-01-22T17:13:27.286Z,0.86
2023-01-22T17:14:27.374Z,0.86
2023-01-22T17:15:27.286Z,0.86
2023-01-22T17:16:27.265Z,0.86
2023-01-22T17:17:27.254Z,0.86
2023-01-22T17:18:27.233Z,0.85
2023-01-22T17:19:27.241Z,0.86
2023-01-22T17:20:27.238Z,0.84
2023-01-22T17:21:27.223Z,0.83
2023-01-22T17:22:27.233Z,0.84
2023-01-22T17:23:27.218Z,0.84
2023-01-22T17:24:27.200Z,0.85
2023-01-22T17:25:27.202Z,0.84
2023-01-22T17:26:27.187Z,0.85
2023-01-22T17:27:27.178Z,0.84
2023-01-22T17:28:27.165Z,0.82
2023-01-22T17:29:27.188Z,0.84
2023-01-22T17:30:27.243Z,0.83
2023-01-22T17:31:27.342Z,0.84
2023-01-22T17:32:27.163Z,0.83
2023-01-22T17:33:27.156Z,0.85
2023-01-22T17:34:27.152Z,0.82
2023-01-22T17:35:27.142Z,0.83
2023-01-22T17:36:27.161Z,0.83
2023-01-22T17:37:27.139Z,0.82
2023-01-22T17:38:27.146Z,0.81
2023-01-22T17:39:27.137Z,0.82
2023-01-22T17:40:27.127Z,0.83
2023-01-22T17:41:27.124Z,0.82
2023-01-22T17:42:27.106Z,0.81
2023-01-22T17:43:27.104Z,0.81
2023-01-22T17:44:27.105Z,0.81
2023-01-22T17:47:27.078Z,0.82
2023-01-22T23:47:24.343Z,0.79
2023-01-22T23:48:24.346Z,0.78
2023-01-22T23:49:24.339Z,0.80
2023-01-22T23:50:24.335Z,0.80
2023-01-22T23:51:24.445Z,0.79
2023-01-22T23:52:24.298Z,0.78
2023-01-22T23:54:24.394Z,0.79
2023-01-22T23:55:24.283Z,0.79
2023-01-22T23:56:24.296Z,0.78
2023-01-22T23:57:24.278Z,0.78
2023-01-22T23:58:24.276Z,0.77
2023-01-22T23:59:24.304Z,0.77
